Time;durP1;ratioP1;P1;durP2;ratioP2;P2;SDS_P1;SDS_P2;PMS_P1;PMS_P2;Temp;Humidity;BMP_temperature;BMP_pressure;BME280_temperature;BME280_humidity;BME280_pressure;Samples;Min_cycle;Max_cycle;Signal;HPM_P1;HPM_P2
2023/07/23 00:02:29;;;;;;;2.30;2.00;;;20.80;58.30;;;;;;5117132;27;20147;-83
2023/07/23 00:04:55;;;;;;;2.78;2.00;;;20.80;58.40;;;;;;5068449;27;20279;-84
2023/07/23 00:07:21;;;;;;;2.13;1.80;;;20.70;58.30;;;;;;5137527;27;20188;-83
2023/07/23 00:09:47;;;;;;;2.10;1.90;;;20.80;58.30;;;;;;5119566;27;20622;-86
2023/07/23 00:12:13;;;;;;;2.00;1.90;;;20.70;58.20;;;;;;5137434;27;20170;-84
2023/07/23 00:14:39;;;;;;;2.58;2.00;;;20.70;58.30;;;;;;5137380;27;20159;-84
2023/07/23 00:17:06;;;;;;;2.00;1.80;;;20.70;58.30;;;;;;5101884;27;20198;-83
2023/07/23 00:19:31;;;;;;;1.83;1.70;;;20.70;58.30;;;;;;5137349;27;20250;-86
2023/07/23 00:21:57;;;;;;;2.33;1.90;;;20.70;58.30;;;;;;5102232;27;20641;-85
2023/07/23 00:24:23;;;;;;;2.22;1.90;;;20.70;58.30;;;;;;5137286;27;20236;-87
2023/07/23 00:26:49;;;;;;;2.25;2.00;;;20.70;58.30;;;;;;5118908;27;20605;-84
2023/07/23 00:29:15;;;;;;;2.00;1.60;;;20.70;58.30;;;;;;5137099;27;20159;-84
2023/07/23 00:31:41;;;;;;;2.05;1.83;;;20.80;58.40;;;;;;5118819;27;20156;-88
2023/07/23 00:34:07;;;;;;;1.83;1.70;;;20.70;58.30;;;;;;5137088;27;20610;-86
2023/07/23 00:36:33;;;;;;;2.50;1.88;;;20.70;58.30;;;;;;5137066;27;20195;-87
2023/07/23 00:38:59;;;;;;;2.42;2.00;;;20.70;58.30;;;;;;5118577;27;20521;-82
2023/07/23 00:41:29;;;;;;;1.73;1.63;;;20.70;58.30;;;;;;5136842;27;20197;-84
2023/07/23 00:43:55;;;;;;;2.22;1.75;;;20.70;58.30;;;;;;5067422;27;20630;-85
2023/07/23 00:46:22;;;;;;;2.85;2.10;;;20.70;58.30;;;;;;5118610;27;20238;-86
2023/07/23 00:48:48;;;;;;;2.00;1.80;;;20.70;58.40;;;;;;5118585;27;20658;-82
2023/07/23 00:51:13;;;;;;;1.92;1.73;;;20.70;58.40;;;;;;5118234;27;20159;-85
2023/07/23 00:53:39;;;;;;;2.10;1.90;;;20.70;58.40;;;;;;5118394;27;20155;-83
2023/07/23 00:56:09;;;;;;;2.70;2.28;;;20.70;58.30;;;;;;5118318;27;20537;-84
2023/07/23 00:58:35;;;;;;;2.53;2.10;;;20.70;58.40;;;;;;5066947;27;20214;-86
2023/07/23 01:01:01;;;;;;;1.90;1.70;;;20.70;58.40;;;;;;5101580;27;20156;-83
2023/07/23 01:03:27;;;;;;;2.10;1.85;;;20.70;58.40;;;;;;5118011;27;20164;-86
2023/07/23 01:05:53;;;;;;;2.35;1.90;;;20.70;58.50;;;;;;5118121;27;20517;-84
2023/07/23 01:08:23;;;;;;;1.98;1.73;;;20.70;58.40;;;;;;5136388;27;20238;-82
2023/07/23 01:10:49;;;;;;;2.30;1.90;;;20.70;58.40;;;;;;5067293;27;20218;-86
2023/07/23 01:13:15;;;;;;;2.20;2.00;;;20.70;58.40;;;;;;5117540;27;20209;-82
2023/07/23 01:15:41;;;;;;;2.25;1.90;;;20.70;58.40;;;;;;5117995;27;20159;-85
2023/07/23 01:18:06;;;;;;;2.50;2.10;;;20.70;58.40;;;;;;5117771;27;20194;-82
2023/07/23 01:20:34;;;;;;;2.95;1.85;;;20.70;58.50;;;;;;5136208;27;20610;-87
2023/07/23 01:23:00;;;;;;;2.00;1.60;;;20.70;58.50;;;;;;5117760;27;20159;-82
2023/07/23 01:25:26;;;;;;;2.22;1.63;;;20.70;58.50;;;;;;5117929;27;20234;-84
2023/07/23 01:27:52;;;;;;;1.92;1.73;;;20.70;58.50;;;;;;5136136;27;20556;-84
2023/07/23 01:30:18;;;;;;;2.50;1.85;;;20.70;58.50;;;;;;5135961;27;20151;-85
2023/07/23 01:32:44;;;;;;;2.17;1.95;;;20.60;58.50;;;;;;5135782;27;20530;-86
2023/07/23 01:35:14;;;;;;;2.10;1.90;;;20.70;58.50;;;;;;5136218;27;20160;-82
2023/07/23 01:37:41;;;;;;;2.15;1.95;;;20.70;58.60;;;;;;5100779;27;20248;-84
2023/07/23 01:40:07;;;;;;;2.00;1.70;;;20.70;58.60;;;;;;5135737;27;20155;-86
2023/07/23 01:42:34;;;;;;;2.00;1.70;;;20.70;58.50;;;;;;5117325;27;20633;-83
2023/07/23 01:45:02;;;;;;;2.17;1.80;;;20.60;58.50;;;;;;5117422;27;20176;-83
2023/07/23 01:47:29;;;;;;;2.28;1.90;;;20.70;59.20;;;;;;5100346;27;20163;-85
2023/07/23 01:49:55;;;;;;;2.05;1.75;;;20.70;58.50;;;;;;5117337;27;20159;-84
2023/07/23 01:52:20;;;;;;;2.10;1.90;;;20.70;58.50;;;;;;5096338;28;20223;-86
2023/07/23 01:54:46;;;;;;;1.80;1.63;;;20.70;58.60;;;;;;5114995;28;20650;-83
2023/07/23 01:57:12;;;;;;;2.42;1.80;;;20.70;58.50;;;;;;5113511;28;20203;-85
2023/07/23 01:59:38;;;;;;;1.90;1.70;;;20.70;58.60;;;;;;5114111;28;20530;-83
2023/07/23 02:02:09;;;;;;;2.58;2.05;;;20.70;58.50;;;;;;5114868;28;20161;-84
2023/07/23 02:04:35;;;;;;;2.15;1.80;;;20.70;58.60;;;;;;5113746;28;20652;-87
2023/07/23 02:07:02;;;;;;;2.33;1.75;;;20.70;58.60;;;;;;5096732;28;20155;-85
2023/07/23 02:09:28;;;;;;;1.90;1.80;;;20.60;58.50;;;;;;5097355;28;20602;-86
2023/07/23 02:11:54;;;;;;;2.30;1.90;;;20.70;58.60;;;;;;5096367;28;20188;-87
2023/07/23 02:14:20;;;;;;;2.50;2.00;;;20.70;58.60;;;;;;5114857;28;20558;-84
2023/07/23 02:16:45;;;;;;;2.00;1.77;;;20.70;58.60;;;;;;5113249;28;20188;-84
2023/07/23 02:19:12;;;;;;;2.15;1.90;;;20.70;58.60;;;;;;5096364;28;20163;-87
2023/07/23 02:21:38;;;;;;;1.65;1.55;;;20.70;58.60;;;;;;5114727;28;20511;-82
2023/07/23 02:24:05;;;;;;;2.20;1.70;;;20.60;58.50;;;;;;5114287;28;20282;-83
2023/07/23 02:26:31;;;;;;;2.03;1.55;;;20.70;58.60;;;;;;5113280;28;20273;-85
2023/07/23 02:28:57;;;;;;;2.15;1.83;;;20.70;58.60;;;;;;5113165;28;20164;-85
2023/07/23 02:31:23;;;;;;;1.73;1.63;;;20.70;58.60;;;;;;5096286;28;20225;-84
2023/07/23 02:33:49;;;;;;;2.30;1.85;;;20.60;58.60;;;;;;5114321;28;20258;-85
2023/07/23 02:36:15;;;;;;;2.20;1.80;;;20.70;58.60;;;;;;5114341;28;20574;-85
2023/07/23 02:38:42;;;;;;;1.92;1.65;;;20.70;58.60;;;;;;5112929;28;20263;-86
2023/07/23 02:41:08;;;;;;;2.13;1.73;;;20.70;58.60;;;;;;5114137;28;20149;-83
2023/07/23 02:43:38;;;;;;;1.98;1.75;;;20.60;58.70;;;;;;5112879;28;20156;-86
2023/07/23 02:46:04;;;;;;;2.00;1.80;;;20.60;58.60;;;;;;5112376;28;20171;-84
2023/07/23 02:48:30;;;;;;;2.00;1.80;;;20.70;58.60;;;;;;5113665;28;20159;-86
2023/07/23 02:50:55;;;;;;;2.50;1.90;;;20.70;58.70;;;;;;5112653;27;20202;-84
2023/07/23 02:53:21;;;;;;;2.40;1.90;;;20.70;58.70;;;;;;5082260;27;20164;-85
2023/07/23 02:55:47;;;;;;;1.90;1.80;;;20.70;58.70;;;;;;5116436;28;20169;-87
2023/07/23 02:58:17;;;;;;;2.67;2.10;;;20.70;58.60;;;;;;5134241;27;20195;-85
2023/07/23 03:00:44;;;;;;;2.40;1.88;;;20.70;58.70;;;;;;5064987;28;20182;-82
2023/07/23 03:03:10;;;;;;;2.15;1.80;;;20.60;58.60;;;;;;5116200;27;20265;-85
2023/07/23 03:05:36;;;;;;;2.00;1.80;;;20.70;58.70;;;;;;5098932;28;20610;-84
2023/07/23 03:08:03;;;;;;;2.90;2.20;;;20.70;58.70;;;;;;5115974;28;20246;-85
2023/07/23 03:10:29;;;;;;;2.17;1.95;;;20.70;58.70;;;;;;5098840;28;20155;-86
2023/07/23 03:12:55;;;;;;;2.40;2.15;;;20.60;58.60;;;;;;5099064;28;20155;-86
2023/07/23 03:15:22;;;;;;;2.55;1.85;;;20.60;58.70;;;;;;5116337;28;20202;-85
2023/07/23 03:17:48;;;;;;;2.22;1.73;;;20.70;58.70;;;;;;5115831;28;20187;-83
2023/07/23 03:20:15;;;;;;;2.33;1.85;;;20.70;58.70;;;;;;5116194;28;20171;-87
2023/07/23 03:22:40;;;;;;;2.08;1.83;;;20.60;58.60;;;;;;5116015;28;20239;-85
2023/07/23 03:25:07;;;;;;;2.50;2.00;;;20.60;58.70;;;;;;5134329;28;20239;-85
2023/07/23 03:27:33;;;;;;;2.13;1.70;;;20.70;58.70;;;;;;5115859;28;20286;-86
2023/07/23 03:29:59;;;;;;;2.00;1.70;;;20.70;58.70;;;;;;5098669;28;20613;-83
2023/07/23 03:32:25;;;;;;;2.30;1.98;;;20.70;58.70;;;;;;5115784;28;20227;-82
2023/07/23 03:34:51;;;;;;;2.45;1.75;;;20.60;58.70;;;;;;5115723;28;20234;-83
2023/07/23 03:37:17;;;;;;;2.67;2.00;;;20.60;58.70;;;;;;5118735;27;20222;-83
2023/07/23 03:39:43;;;;;;;2.80;2.20;;;20.60;58.70;;;;;;5138145;27;20164;-86
2023/07/23 03:42:09;;;;;;;1.92;1.73;;;20.60;58.70;;;;;;5102700;27;20163;-86
2023/07/23 03:44:35;;;;;;;2.35;1.80;;;20.60;59.40;;;;;;5119608;27;20610;-86
2023/07/23 03:47:10;;;;;;;1.88;1.70;;;20.60;58.70;;;;;;5119712;27;20175;-87
2023/07/23 03:49:36;;;;;;;1.70;1.60;;;20.60;58.70;;;;;;5119686;27;20147;-86
2023/07/23 03:52:01;;;;;;;2.08;1.85;;;20.60;58.70;;;;;;5119262;27;20619;-85
2023/07/23 03:54:27;;;;;;;2.10;1.90;;;20.50;58.70;;;;;;5085796;27;20167;-84
2023/07/23 03:56:53;;;;;;;2.40;1.90;;;20.60;58.70;;;;;;5102361;27;20222;-83
2023/07/23 03:59:19;;;;;;;2.45;1.90;;;20.60;58.70;;;;;;5137919;27;20158;-86
2023/07/23 04:01:45;;;;;;;2.50;1.95;;;20.60;58.70;;;;;;5137638;27;20271;-84
2023/07/23 04:04:11;;;;;;;2.03;1.70;;;20.60;58.70;;;;;;5119414;27;20165;-83
2023/07/23 04:06:37;;;;;;;2.20;2.00;;;20.70;58.70;;;;;;5137667;27;20151;-88
2023/07/23 04:09:03;;;;;;;2.28;1.90;;;20.60;58.70;;;;;;5137707;27;20739;-85
2023/07/23 04:11:29;;;;;;;2.65;1.98;;;20.70;58.80;;;;;;5102056;27;20264;-87
2023/07/23 04:13:55;;;;;;;2.00;1.70;;;20.60;58.80;;;;;;5137574;27;20152;-84
2023/07/23 04:16:25;;;;;;;2.60;1.90;;;20.70;58.80;;;;;;5137335;27;20175;-85
2023/07/23 04:18:51;;;;;;;2.42;1.80;;;20.70;58.70;;;;;;5084664;27;20232;-86
2023/07/23 04:21:18;;;;;;;2.05;1.85;;;20.70;58.70;;;;;;5137349;27;20257;-86
2023/07/23 04:23:46;;;;;;;2.50;2.03;;;20.70;58.60;;;;;;5102030;27;20494;-84
2023/07/23 04:26:13;;;;;;;2.13;1.90;;;20.70;58.60;;;;;;5101930;27;20171;-82
2023/07/23 04:28:39;;;;;;;2.05;1.75;;;20.70;58.50;;;;;;5118857;27;20200;-85
2023/07/23 04:31:04;;;;;;;2.00;1.73;;;20.80;58.40;;;;;;5118778;27;20155;-85
2023/07/23 04:33:30;;;;;;;2.17;1.80;;;20.90;58.30;;;;;;5101956;27;20154;-83
2023/07/23 04:35:56;;;;;;;2.30;1.90;;;20.80;58.30;;;;;;5101603;27;20164;-84
2023/07/23 04:38:22;;;;;;;2.03;1.83;;;20.90;58.20;;;;;;5118530;27;20191;-86
2023/07/23 04:40:48;;;;;;;1.70;1.60;;;20.90;58.20;;;;;;5118637;27;20155;-85
2023/07/23 04:43:14;;;;;;;2.40;1.90;;;20.90;58.10;;;;;;5136862;27;20199;-87
2023/07/23 04:45:41;;;;;;;2.05;1.80;;;20.90;58.10;;;;;;5137259;27;20511;-87
2023/07/23 04:48:07;;;;;;;2.13;1.73;;;21.00;58.10;;;;;;5117539;27;20205;-84
2023/07/23 04:50:33;;;;;;;2.03;1.83;;;21.00;58.00;;;;;;5118962;27;20650;-83
2023/07/23 04:52:59;;;;;;;2.15;1.80;;;20.90;58.00;;;;;;5097771;28;20251;-83
2023/07/23 04:55:25;;;;;;;2.13;1.90;;;20.90;57.90;;;;;;5116027;28;20184;-86
2023/07/23 04:57:51;;;;;;;2.00;1.80;;;20.90;57.90;;;;;;5114720;28;20192;-85
2023/07/23 05:00:18;;;;;;;2.10;1.60;;;21.00;57.90;;;;;;5116175;28;20178;-85
2023/07/23 05:02:43;;;;;;;2.08;1.65;;;21.00;57.90;;;;;;5116132;28;20190;-83
2023/07/23 05:05:09;;;;;;;1.85;1.60;;;21.00;57.90;;;;;;5115976;28;20183;-83
2023/07/23 05:07:35;;;;;;;2.33;1.85;;;21.00;57.80;;;;;;5115848;28;20661;-83
2023/07/23 05:10:02;;;;;;;2.05;1.85;;;21.00;57.70;;;;;;5114686;28;20149;-86
2023/07/23 05:12:28;;;;;;;2.25;1.77;;;21.10;57.70;;;;;;5098005;28;20254;-86
2023/07/23 05:15:14;;;;;;;2.38;1.70;;;21.10;57.70;;;;;;5114610;28;20197;-83
2023/07/23 05:17:40;;;;;;;2.00;1.80;;;21.10;57.60;;;;;;5114743;28;20192;-86
2023/07/23 05:20:06;;;;;;;2.40;1.73;;;21.10;57.50;;;;;;5114637;28;20201;-82
2023/07/23 05:22:35;;;;;;;1.70;1.58;;;21.10;57.50;;;;;;5115611;28;20157;-81
2023/07/23 05:25:03;;;;;;;2.60;1.95;;;21.10;57.50;;;;;;5097314;28;20193;-82
2023/07/23 05:27:29;;;;;;;1.98;1.50;;;21.20;57.60;;;;;;5114524;28;20537;-86
2023/07/23 05:29:55;;;;;;;2.00;1.80;;;21.10;57.50;;;;;;5114090;28;20160;-83
2023/07/23 05:32:21;;;;;;;1.95;1.65;;;21.20;57.40;;;;;;5114276;28;20159;-84
2023/07/23 05:34:47;;;;;;;2.05;1.73;;;21.20;57.40;;;;;;5114297;28;20240;-86
2023/07/23 05:37:13;;;;;;;1.77;1.63;;;21.20;57.10;;;;;;5115181;28;20274;-85
2023/07/23 05:39:39;;;;;;;1.90;1.70;;;21.30;57.10;;;;;;5114064;28;20148;-86
2023/07/23 05:42:05;;;;;;;2.10;1.67;;;21.20;57.10;;;;;;5115569;28;20147;-86
2023/07/23 05:44:31;;;;;;;2.10;1.83;;;21.30;57.10;;;;;;5113933;28;20160;-83
2023/07/23 05:46:57;;;;;;;2.15;1.95;;;21.30;57.20;;;;;;5114102;28;20517;-88
2023/07/23 05:49:24;;;;;;;1.90;1.73;;;21.30;57.10;;;;;;5096643;28;20164;-87
2023/07/23 05:51:50;;;;;;;2.08;1.80;;;21.30;57.20;;;;;;5096655;28;20678;-83
2023/07/23 05:54:16;;;;;;;2.63;1.98;;;21.30;57.00;;;;;;5113726;28;20630;-83
2023/07/23 05:56:42;;;;;;;2.17;1.77;;;21.30;57.00;;;;;;5096653;28;20168;-86
2023/07/23 05:59:08;;;;;;;1.70;1.60;;;21.20;57.30;;;;;;5096628;28;20228;-86
2023/07/23 06:01:34;;;;;;;2.67;1.90;;;21.20;57.20;;;;;;5115154;28;20187;-86
2023/07/23 06:04:00;;;;;;;1.88;1.65;;;21.30;57.10;;;;;;5113629;28;20152;-86
2023/07/23 06:06:25;;;;;;;1.90;1.50;;;21.30;57.20;;;;;;5097106;28;20164;-84
2023/07/23 06:08:51;;;;;;;2.75;2.20;;;21.30;57.20;;;;;;5113491;28;20148;-87
2023/07/23 06:11:17;;;;;;;2.25;1.75;;;21.30;57.00;;;;;;5113841;28;20173;-87
2023/07/23 06:13:43;;;;;;;2.28;1.65;;;21.30;57.10;;;;;;5096400;28;20687;-82
2023/07/23 06:16:09;;;;;;;2.58;1.80;;;21.40;57.00;;;;;;5096628;28;20160;-84
2023/07/23 06:18:35;;;;;;;1.95;1.60;;;21.30;57.00;;;;;;5113479;28;20213;-87
2023/07/23 06:21:03;;;;;;;1.98;1.75;;;21.40;56.90;;;;;;5113242;28;20168;-86
2023/07/23 06:23:28;;;;;;;1.90;1.70;;;21.50;57.50;;;;;;5114317;28;20614;-87
2023/07/23 06:25:55;;;;;;;1.90;1.75;;;21.40;56.80;;;;;;5113435;28;20255;-86
2023/07/23 06:28:21;;;;;;;2.35;2.00;;;21.40;56.70;;;;;;5096549;28;20274;-86
2023/07/23 06:30:50;;;;;;;2.15;1.70;;;21.40;56.90;;;;;;5096254;28;20201;-84
2023/07/23 06:33:16;;;;;;;1.90;1.70;;;21.30;57.00;;;;;;5112966;28;20221;-85
2023/07/23 06:35:43;;;;;;;1.88;1.40;;;21.30;56.90;;;;;;5113004;28;20196;-84
2023/07/23 06:38:09;;;;;;;2.10;1.77;;;21.40;56.90;;;;;;5114164;28;20188;-85
2023/07/23 06:40:35;;;;;;;1.85;1.67;;;21.30;57.00;;;;;;5112869;28;20614;-86
2023/07/23 06:43:01;;;;;;;2.15;1.80;;;21.30;57.20;;;;;;5112855;28;20629;-86
2023/07/23 06:45:27;;;;;;;2.05;1.77;;;21.10;57.40;;;;;;5113180;28;20152;-85
2023/07/23 06:47:53;;;;;;;1.92;1.70;;;21.00;57.60;;;;;;5114021;28;20167;-85
2023/07/23 06:50:19;;;;;;;1.90;1.67;;;21.00;57.70;;;;;;5112877;28;20175;-85
2023/07/23 06:52:45;;;;;;;1.95;1.75;;;21.00;57.70;;;;;;5112464;28;20577;-85
2023/07/23 06:55:11;;;;;;;2.03;1.83;;;21.10;57.50;;;;;;5112728;28;20649;-86
2023/07/23 06:57:41;;;;;;;1.95;1.70;;;21.20;57.40;;;;;;5112677;28;20212;-87
2023/07/23 07:00:08;;;;;;;2.22;1.77;;;21.10;57.40;;;;;;5112118;28;20203;-87
2023/07/23 07:02:34;;;;;;;1.90;1.70;;;21.00;57.40;;;;;;5112645;28;20164;-85
2023/07/23 07:05:00;;;;;;;1.60;1.50;;;21.10;57.30;;;;;;5096081;28;20160;-84
2023/07/23 07:07:26;;;;;;;2.33;1.73;;;21.00;57.40;;;;;;5113749;28;20179;-86
2023/07/23 07:09:53;;;;;;;1.83;1.58;;;21.10;57.30;;;;;;5112496;28;20614;-84
2023/07/23 07:12:19;;;;;;;1.73;1.60;;;21.10;57.20;;;;;;5112171;28;20554;-86
2023/07/23 07:14:45;;;;;;;1.60;1.50;;;21.10;57.20;;;;;;5112528;28;20187;-84
2023/07/23 07:17:11;;;;;;;2.05;1.60;;;21.00;57.10;;;;;;5112460;28;20188;-84
2023/07/23 07:19:37;;;;;;;1.65;1.55;;;21.00;57.10;;;;;;5112392;28;20154;-87
2023/07/23 07:22:03;;;;;;;1.67;1.58;;;21.00;57.30;;;;;;5113752;28;20663;-83
2023/07/23 07:24:29;;;;;;;1.75;1.48;;;21.00;57.20;;;;;;5112465;28;20144;-87
2023/07/23 07:26:55;;;;;;;2.35;1.75;;;21.00;57.00;;;;;;5112367;28;20531;-85
2023/07/23 07:29:21;;;;;;;1.70;1.60;;;21.00;57.10;;;;;;5112709;28;20547;-85
2023/07/23 07:31:48;;;;;;;1.67;1.50;;;21.00;57.30;;;;;;5113687;28;20156;-85
2023/07/23 07:34:14;;;;;;;2.53;1.90;;;21.00;57.20;;;;;;5112298;28;20171;-84
2023/07/23 07:36:40;;;;;;;1.88;1.58;;;21.00;57.10;;;;;;5113474;28;20152;-85
2023/07/23 07:39:06;;;;;;;1.50;1.40;;;21.10;57.00;;;;;;5112589;28;20593;-83
2023/07/23 07:41:32;;;;;;;1.98;1.45;;;21.00;57.00;;;;;;5113420;28;20149;-84
2023/07/23 07:43:58;;;;;;;2.13;1.70;;;21.10;56.70;;;;;;5112194;28;20156;-85
2023/07/23 07:46:23;;;;;;;2.13;1.73;;;21.10;56.70;;;;;;5113373;28;20160;-88
2023/07/23 07:48:49;;;;;;;1.67;1.58;;;21.10;56.70;;;;;;5113691;28;20165;-83
2023/07/23 07:51:15;;;;;;;2.15;1.80;;;21.10;56.80;;;;;;5097687;28;20163;-85
2023/07/23 07:53:45;;;;;;;2.05;1.60;;;21.00;56.70;;;;;;5116050;28;20152;-86
2023/07/23 07:56:17;;;;;;;1.67;1.50;;;21.10;56.60;;;;;;5048121;28;20247;-85
2023/07/23 07:58:45;;;;;;;1.70;1.60;;;21.10;56.60;;;;;;5099263;28;20210;-86
2023/07/23 08:01:11;;;;;;;1.73;1.60;;;21.00;56.60;;;;;;5133871;28;20159;-82
2023/07/23 08:03:37;;;;;;;2.05;1.75;;;21.10;56.40;;;;;;5133972;28;20673;-85
2023/07/23 08:06:03;;;;;;;1.60;1.50;;;21.10;56.50;;;;;;5115346;28;20159;-83
2023/07/23 08:08:32;;;;;;;2.15;1.95;;;21.10;56.40;;;;;;5098440;28;20614;-87
2023/07/23 08:10:59;;;;;;;1.75;1.63;;;21.10;56.40;;;;;;5115701;28;20155;-86
2023/07/23 08:13:25;;;;;;;2.00;1.60;;;21.20;56.30;;;;;;5115468;28;20163;-86
2023/07/23 08:15:52;;;;;;;1.55;1.45;;;21.10;56.40;;;;;;5115506;28;20148;-85
2023/07/23 08:18:18;;;;;;;1.90;1.60;;;21.10;56.50;;;;;;5098643;28;20244;-85
2023/07/23 08:20:44;;;;;;;1.90;1.67;;;21.00;56.70;;;;;;5098289;28;20587;-84
2023/07/23 08:23:10;;;;;;;1.60;1.50;;;20.90;56.90;;;;;;5134910;27;20148;-84
2023/07/23 08:25:37;;;;;;;2.00;1.75;;;20.90;56.90;;;;;;5137306;27;20152;-83
2023/07/23 08:28:03;;;;;;;2.20;1.90;;;20.90;56.80;;;;;;5118792;27;20182;-84
2023/07/23 08:30:30;;;;;;;1.98;1.65;;;20.90;56.80;;;;;;5101841;27;20168;-84
2023/07/23 08:32:57;;;;;;;1.98;1.60;;;21.00;56.60;;;;;;5101905;27;20182;-83
2023/07/23 08:35:23;;;;;;;1.92;1.77;;;21.10;56.40;;;;;;5118873;27;20148;-83
2023/07/23 08:37:50;;;;;;;2.38;1.70;;;21.10;56.40;;;;;;5102418;27;20204;-86
2023/07/23 08:40:16;;;;;;;1.65;1.42;;;21.00;56.40;;;;;;5101818;27;20258;-83
2023/07/23 08:43:06;;;;;;;1.67;1.48;;;21.10;56.30;;;;;;5118570;27;20207;-84
2023/07/23 08:46:09;;;;;;;2.03;1.80;;;21.10;56.30;;;;;;5118491;27;20170;-85
2023/07/23 08:49:01;;;;;;;1.65;1.55;;;21.10;56.30;;;;;;5136682;27;20514;-87
2023/07/23 08:51:31;;;;;;;1.70;1.60;;;21.00;56.40;;;;;;5115113;28;20248;-85
2023/07/23 08:53:57;;;;;;;2.53;2.00;;;21.10;56.30;;;;;;5115598;27;20152;-85
2023/07/23 08:56:23;;;;;;;2.15;1.90;;;21.10;56.20;;;;;;5098370;28;20399;-82
2023/07/23 08:58:49;;;;;;;1.90;1.70;;;21.10;56.20;;;;;;5116469;28;20279;-82
2023/07/23 09:01:15;;;;;;;1.67;1.58;;;21.10;56.00;;;;;;5114864;28;20157;-83
2023/07/23 09:03:42;;;;;;;1.80;1.65;;;21.00;56.30;;;;;;5114810;28;20227;-87
2023/07/23 09:06:08;;;;;;;1.70;1.60;;;21.10;56.20;;;;;;5116014;28;20634;-84
2023/07/23 09:08:34;;;;;;;1.98;1.65;;;21.20;56.10;;;;;;5115042;28;20159;-86
2023/07/23 09:11:05;;;;;;;1.90;1.80;;;21.10;56.10;;;;;;5115884;28;20235;-83
2023/07/23 09:13:34;;;;;;;1.70;1.60;;;21.10;56.10;;;;;;5098043;28;20542;-83
2023/07/23 09:16:00;;;;;;;1.83;1.73;;;21.10;55.90;;;;;;5114554;28;20144;-86
2023/07/23 09:18:26;;;;;;;1.92;1.73;;;21.10;55.80;;;;;;5115831;28;20660;-86
2023/07/23 09:20:52;;;;;;;2.28;1.90;;;21.10;55.80;;;;;;5114503;28;20520;-85
2023/07/23 09:23:18;;;;;;;1.48;1.38;;;21.20;55.70;;;;;;5114497;28;20170;-86
2023/07/23 09:25:44;;;;;;;1.80;1.63;;;21.10;55.70;;;;;;5115493;28;20156;-83
2023/07/23 09:28:25;;;;;;;2.13;1.77;;;21.00;55.90;;;;;;5097362;28;20160;-82
2023/07/23 09:30:54;;;;;;;1.80;1.67;;;21.00;55.90;;;;;;5114352;28;20155;-82
2023/07/23 09:33:20;;;;;;;1.80;1.70;;;21.10;55.70;;;;;;5114290;28;20155;-84
2023/07/23 09:35:46;;;;;;;1.80;1.70;;;21.10;55.70;;;;;;5114076;28;20152;-84
2023/07/23 09:38:13;;;;;;;2.00;1.60;;;21.20;55.70;;;;;;5114039;28;20195;-85
2023/07/23 09:40:40;;;;;;;1.90;1.70;;;21.10;55.70;;;;;;5114052;28;20163;-86
2023/07/23 09:43:07;;;;;;;1.83;1.70;;;21.10;55.60;;;;;;5114115;28;20156;-84
2023/07/23 09:45:37;;;;;;;1.92;1.73;;;21.10;55.70;;;;;;5114145;28;20163;-83
2023/07/23 09:48:03;;;;;;;1.90;1.70;;;21.10;55.60;;;;;;5115338;28;20259;-84
2023/07/23 09:50:33;;;;;;;1.73;1.50;;;21.20;55.40;;;;;;5115094;28;20161;-87
2023/07/23 09:52:59;;;;;;;2.25;1.45;;;21.10;55.50;;;;;;5113191;28;20242;-86
2023/07/23 09:55:25;;;;;;;1.92;1.70;;;21.10;55.40;;;;;;5115097;28;20545;-84
2023/07/23 09:57:56;;;;;;;2.20;1.80;;;21.20;55.30;;;;;;5096704;28;20282;-84
2023/07/23 10:00:25;;;;;;;1.88;1.63;;;21.10;55.30;;;;;;5062619;28;20261;-85
2023/07/23 10:02:51;;;;;;;1.95;1.70;;;21.20;55.20;;;;;;5079570;28;20237;-86
2023/07/23 10:05:18;;;;;;;2.40;2.00;;;21.20;55.10;;;;;;5113559;28;20156;-86
2023/07/23 10:07:48;;;;;;;1.70;1.60;;;21.20;55.20;;;;;;5113499;28;20152;-87
2023/07/23 10:10:15;;;;;;;2.00;1.80;;;21.10;55.00;;;;;;5046333;28;20543;-85
2023/07/23 10:12:41;;;;;;;2.20;2.00;;;21.20;55.10;;;;;;5113849;28;20148;-83
2023/07/23 10:15:07;;;;;;;2.20;1.80;;;21.20;55.00;;;;;;5113675;28;20217;-84
2023/07/23 10:17:48;;;;;;;2.20;1.90;;;21.20;55.00;;;;;;5113217;28;20187;-86
2023/07/23 10:20:14;;;;;;;2.22;1.88;;;21.20;55.00;;;;;;5114564;28;20615;-83
2023/07/23 10:22:40;;;;;;;1.88;1.65;;;21.20;54.90;;;;;;5113262;28;20668;-86
2023/07/23 10:25:30;;;;;;;1.55;1.45;;;21.30;54.80;;;;;;5113088;28;20202;-83
2023/07/23 10:28:00;;;;;;;1.75;1.65;;;21.20;54.70;;;;;;5113483;28;20164;-86
2023/07/23 10:30:27;;;;;;;2.45;1.65;;;21.20;54.60;;;;;;5113358;28;20152;-84
2023/07/23 10:33:28;;;;;;;2.10;1.90;;;21.20;54.70;;;;;;5113014;28;20240;-83
2023/07/23 10:35:58;;;;;;;2.00;1.80;;;21.20;54.70;;;;;;5096571;28;20591;-85
2023/07/23 10:38:25;;;;;;;1.85;1.60;;;21.20;55.00;;;;;;5113152;28;20240;-83
2023/07/23 10:40:52;;;;;;;1.80;1.60;;;21.20;54.70;;;;;;5113180;28;20160;-85
2023/07/23 10:43:17;;;;;;;2.00;1.80;;;21.20;54.60;;;;;;5114214;28;20152;-85
2023/07/23 10:45:46;;;;;;;1.92;1.73;;;21.30;54.60;;;;;;5113479;28;20155;-88
2023/07/23 10:48:19;;;;;;;2.15;1.80;;;21.20;54.60;;;;;;5095760;28;20168;-85
2023/07/23 10:50:59;;;;;;;2.03;1.60;;;21.30;54.50;;;;;;5061640;28;20186;-84
2023/07/23 10:53:31;;;;;;;2.00;1.80;;;21.20;54.40;;;;;;5114149;28;20243;-86
2023/07/23 10:56:00;;;;;;;1.77;1.67;;;21.20;54.50;;;;;;5062561;28;20201;-85
2023/07/23 10:58:26;;;;;;;2.08;1.80;;;21.20;54.30;;;;;;5095972;28;20199;-84
2023/07/23 11:00:54;;;;;;;1.65;1.55;;;21.20;54.20;;;;;;5112705;28;20152;-85
2023/07/23 11:03:22;;;;;;;1.90;1.70;;;21.30;54.30;;;;;;5114165;28;20156;-83
2023/07/23 11:05:48;;;;;;;2.03;1.83;;;21.20;54.10;;;;;;5112677;28;20156;-84
2023/07/23 11:08:15;;;;;;;1.60;1.50;;;21.30;53.90;;;;;;5112787;28;20618;-86
2023/07/23 11:10:52;;;;;;;1.98;1.77;;;21.30;54.00;;;;;;5112506;28;20169;-85
2023/07/23 11:13:20;;;;;;;1.88;1.77;;;21.20;53.90;;;;;;5112760;28;20621;-84
2023/07/23 11:15:46;;;;;;;2.03;1.58;;;21.20;53.90;;;;;;5112708;28;20182;-83
2023/07/23 11:18:12;;;;;;;1.80;1.70;;;21.30;53.60;;;;;;5113572;28;20195;-85
2023/07/23 11:20:43;;;;;;;1.80;1.60;;;21.30;53.60;;;;;;5113933;28;20542;-86
2023/07/23 11:23:11;;;;;;;1.77;1.67;;;21.30;53.50;;;;;;5114027;28;20670;-84
2023/07/23 11:25:37;;;;;;;1.65;1.55;;;21.20;53.50;;;;;;5095664;28;20614;-88
2023/07/23 11:28:03;;;;;;;1.70;1.60;;;21.20;53.50;;;;;;5095451;28;20164;-84
2023/07/23 11:30:31;;;;;;;1.63;1.48;;;21.20;53.40;;;;;;5095553;28;20156;-86
2023/07/23 11:32:58;;;;;;;1.90;1.70;;;21.30;53.20;;;;;;5113669;28;20190;-83
2023/07/23 11:35:24;;;;;;;1.75;1.58;;;21.30;53.10;;;;;;5095770;28;20172;-83
2023/07/23 11:37:50;;;;;;;1.63;1.52;;;21.30;53.20;;;;;;5095330;28;20240;-84
2023/07/23 11:40:20;;;;;;;1.92;1.75;;;21.30;53.00;;;;;;5112276;28;20160;-87
2023/07/23 11:42:46;;;;;;;1.73;1.63;;;21.30;53.00;;;;;;5095263;28;20160;-86
2023/07/23 11:45:12;;;;;;;1.73;1.63;;;21.30;53.10;;;;;;5095292;28;20164;-87
2023/07/23 11:47:49;;;;;;;1.60;1.50;;;21.30;53.00;;;;;;5112110;28;20566;-89
2023/07/23 11:50:16;;;;;;;1.70;1.60;;;21.30;52.90;;;;;;5113732;28;20140;-85
2023/07/23 11:52:42;;;;;;;2.17;1.70;;;21.40;52.90;;;;;;5112175;28;20231;-86
2023/07/23 11:55:20;;;;;;;1.85;1.67;;;21.30;52.90;;;;;;5096588;28;20164;-86
2023/07/23 11:57:57;;;;;;;1.90;1.70;;;21.30;52.90;;;;;;5115301;28;20187;-83
2023/07/23 12:00:35;;;;;;;1.98;1.77;;;21.20;52.80;;;;;;5117495;28;20243;-85
2023/07/23 12:03:07;;;;;;;1.75;1.65;;;21.20;52.80;;;;;;5117441;28;20235;-84
2023/07/23 12:05:33;;;;;;;2.30;2.10;;;21.20;52.50;;;;;;5115939;28;20152;-83
2023/07/23 12:08:03;;;;;;;1.88;1.77;;;21.30;52.60;;;;;;5115852;28;20240;-84
2023/07/23 12:10:33;;;;;;;1.95;1.75;;;21.30;52.50;;;;;;5115242;28;20643;-83
2023/07/23 12:13:08;;;;;;;1.70;1.60;;;21.30;52.60;;;;;;5115293;28;20231;-84
2023/07/23 12:15:34;;;;;;;1.70;1.60;;;21.40;52.40;;;;;;5098657;28;20209;-84
2023/07/23 12:18:00;;;;;;;1.60;1.50;;;21.40;52.30;;;;;;5115596;28;20188;-83
2023/07/23 12:20:26;;;;;;;1.73;1.63;;;21.40;52.30;;;;;;5115610;28;20153;-85
2023/07/23 12:22:53;;;;;;;1.55;1.45;;;21.40;52.30;;;;;;5117161;28;20160;-85
2023/07/23 12:25:19;;;;;;;2.13;1.92;;;21.40;52.20;;;;;;5115539;28;20152;-83
2023/07/23 12:27:45;;;;;;;1.75;1.65;;;21.40;52.10;;;;;;5115471;28;20167;-85
2023/07/23 12:30:11;;;;;;;1.85;1.70;;;21.40;52.30;;;;;;5115442;28;20156;-84
2023/07/23 12:32:37;;;;;;;1.80;1.70;;;21.40;52.20;;;;;;5115360;28;20152;-84
2023/07/23 12:35:04;;;;;;;1.83;1.73;;;21.30;52.20;;;;;;5115588;28;20191;-87
2023/07/23 12:37:34;;;;;;;1.70;1.60;;;21.40;52.20;;;;;;5098469;28;20639;-85
2023/07/23 12:40:04;;;;;;;2.03;1.90;;;21.40;51.90;;;;;;5114661;28;20186;-87
2023/07/23 12:42:31;;;;;;;2.45;1.73;;;21.40;51.90;;;;;;5116457;28;20156;-89
2023/07/23 12:44:58;;;;;;;1.67;1.58;;;21.40;51.80;;;;;;5098093;28;20603;-85
2023/07/23 12:47:25;;;;;;;1.90;1.70;;;21.40;51.90;;;;;;5116298;28;20646;-83
2023/07/23 12:49:51;;;;;;;2.10;1.90;;;21.40;51.70;;;;;;5098106;28;20188;-87